This is the latest recevied weather packets stored in our database for station/object W0JRT-6. If no packets are shown the sender has not sent any weather packets the latest 10 day(s).
| Time | Temp. | Humidity | Pressure | Rain* | Wind** | Luminosity | Snow |
|---|---|---|---|---|---|---|---|
| 1777791009 | 10° C | 63% | 1015.4 hPa | 0 mm | - | - | - |
| 1777790410 | 10° C | 63% | 1015.6 hPa | 0 mm | - | - | - |
| 1777789807 | 10° C | 65% | 1015.8 hPa | 0 mm | - | - | - |
| 1777789206 | 9.44° C | 67% | 1015.9 hPa | 0 mm | - | - | - |
| 1777788608 | 9.44° C | 67% | 1016.1 hPa | 0 mm | - | - | - |
| 1777788001 | 8.89° C | 68% | 1016.4 hPa | 0 mm | - | - | - |
| 1777787403 | 8.33° C | 73% | 1016.5 hPa | 0 mm | - | - | - |
| 1777785601 | 5.56° C | 88% | 1016.8 hPa | 0 mm | - | - | - |
| 1777784656 | 6.11° C | 87% | 1017 hPa | 0 mm | - | - | - |
| 1777784403 | 6.11° C | 87% | 1017 hPa | 0 mm | - | - | - |
| 1777784052 | 6.11° C | 88% | 1017 hPa | 0 mm | - | - | - |
| 1777783802 | 6.11° C | 88% | 1017 hPa | 0 mm | - | - | - |
| 1777782601 | 6.11° C | 85% | 1017.1 hPa | 0 mm | - | - | - |
| 1777782003 | 6.11° C | 85% | 1017.1 hPa | 0 mm | - | - | - |
| 1777780801 | 6.67° C | 83% | 1017.1 hPa | 0 mm | - | - | - |
| 1777780453 | 7.22° C | 83% | 1017 hPa | 0 mm | - | - | - |
| 1777780198 | 7.22° C | 83% | 1017 hPa | 0 mm | - | - | - |
| 1777779005 | 7.78° C | 80% | 1016.8 hPa | 0 mm | - | - | - |
| 1777778407 | 7.78° C | 80% | 1016.7 hPa | 0 mm | - | - | - |
| 1777777903 | 7.78° C | 82% | 1016.6 hPa | 0 mm | - | - | - |
| 1777777807 | 7.78° C | 82% | 1016.6 hPa | 0 mm | - | - | - |
| 1777777203 | 8.33° C | 80% | 1016.6 hPa | 0 mm | - | - | - |
| 1777776600 | 8.33° C | 77% | 1016.4 hPa | 0 mm | - | - | - |
| 1777775399 | 8.89° C | 74% | 1016 hPa | 0 mm | - | - | - |
| 1777774804 | 9.44° C | 75% | 1015.8 hPa | 0 mm | - | - | - |
* Rain since midnight (hover to see other rain measurements)
** Current wind speed in m/s (hover to see current wind gust speed)